Valley Falls, KS

9:24 PM CDT on August 30, 2016 (GMT -0500)
Lakeridge | | Change Station

Elev 1023 ft 39.16 °N, 95.48 °W | Updated 4 seconds ago

Mostly Cloudy
Mostly Cloudy
77.0 °F
Feels Like 79 °F
N
0.7
Wind Variable Wind from NW
Gusts 3.8 mph

Today
High -- | Low -- °F
--% Chance of Precip.
Yesterday
High -- | Low -- °F
Precip. -- in
Pressure 30.08 in
Visibility 10.0 miles
Clouds Few 9000 ft
Mostly Cloudy 12000 ft
Heat Index 79 °F
Dew Point 70 °F
Humidity 79%
Rainfall in
Snow Depth Not available.
6:48 AM 7:54 PM
Waning Crescent, 2% visible
METAR KTOP 310153Z AUTO 35004KT 10SM FEW090 BKN120 26/23 A3011 RMK AO2 SLP186 T02560228
Pressure 30.08 in
Visibility 10.0 miles
Clouds Few 9000 ft
Mostly Cloudy 12000 ft
Heat Index 79 °F
Dew Point 70 °F
Humidity 79%
Rainfall in
Snow Depth Not available.
6:48 AM 7:54 PM
Waning Crescent, 2% visible
METAR KTOP 310153Z AUTO 35004KT 10SM FEW090 BKN120 26/23 A3011 RMK AO2 SLP186 T02560228

10-Day Weather Forecast

Almanac

Astronomy

Aug. 30, 2016 Rise Set
Actual Time
Civil Twilight
Nautical Twilight
Astronomical Twilight
Moon
Length of Visible Light
Length of Day
Tomorrow will be .
, % of the Moon is Illuminated

Today's Extremes

State Highs State Lows

Community

WunderPhotos

Upload Photos

1,935,997 photos uploaded!

WunderBlog® & News

Nearby

Air Quality

  Air Quality AQ Index Pollutant
Not available.

Snow Depth

Station Depth Elevation

Earthquake Activity

City Distance Mag. Time & Date
Minimum magnitude displayed is 2.5.

Coastal Water Temperatures

Place Temperature

Stations

Nearby Weather Stations

Station Location Temp. Windchill Dew Point Humidity Wind Precip. Elev Updated Type
                   

Watches & Warnings

There are currently no watches in effect.